sensor_id;sensor_type;location;lat;lon;timestamp;P1;P2;P0
65783;PMS5003;52532;53.358;-1.488;2022-08-01T00:01:08;92.8;85.1;
65783;PMS5003;52532;53.358;-1.488;2022-08-01T00:04:11;93.2;83.2;
65783;PMS5003;52532;53.358;-1.488;2022-08-01T00:07:13;81.1;69.3;
65783;PMS5003;52532;53.358;-1.488;2022-08-01T00:10:16;82.8;74.9;
65783;PMS5003;52532;53.358;-1.488;2022-08-01T00:13:20;91.0;81.4;
65783;PMS5003;52532;53.358;-1.488;2022-08-01T00:16:23;87.3;73.6;
65783;PMS5003;52532;53.358;-1.488;2022-08-01T00:19:26;86.9;76.7;
65783;PMS5003;52532;53.358;-1.488;2022-08-01T00:22:30;87.6;79.3;
65783;PMS5003;52532;53.358;-1.488;2022-08-01T00:25:33;108.1;97.0;
65783;PMS5003;52532;53.358;-1.488;2022-08-01T00:28:36;109.3;100.1;
65783;PMS5003;52532;53.358;-1.488;2022-08-01T00:31:38;105.5;97.8;
65783;PMS5003;52532;53.358;-1.488;2022-08-01T00:34:42;103.8;90.8;
65783;PMS5003;52532;53.358;-1.488;2022-08-01T00:37:44;97.1;86.0;
65783;PMS5003;52532;53.358;-1.488;2022-08-01T00:40:47;98.6;91.0;
65783;PMS5003;52532;53.358;-1.488;2022-08-01T00:43:50;91.3;79.3;
65783;PMS5003;52532;53.358;-1.488;2022-08-01T00:46:53;101.0;90.2;
65783;PMS5003;52532;53.358;-1.488;2022-08-01T00:49:56;96.2;89.8;
65783;PMS5003;52532;53.358;-1.488;2022-08-01T00:52:59;104.4;95.8;
65783;PMS5003;52532;53.358;-1.488;2022-08-01T00:56:03;108.7;96.2;
65783;PMS5003;52532;53.358;-1.488;2022-08-01T00:59:07;108.0;100.7;
65783;PMS5003;52532;53.358;-1.488;2022-08-01T01:02:11;105.9;96.7;
65783;PMS5003;52532;53.358;-1.488;2022-08-01T01:05:14;109.8;97.3;
65783;PMS5003;52532;53.358;-1.488;2022-08-01T01:08:19;108.1;98.0;
65783;PMS5003;52532;53.358;-1.488;2022-08-01T01:11:25;112.8;104.7;
65783;PMS5003;52532;53.358;-1.488;2022-08-01T01:14:34;109.6;97.3;
65783;PMS5003;52532;53.358;-1.488;2022-08-01T01:17:48;109.1;98.7;
65783;PMS5003;52532;53.358;-1.488;2022-08-01T01:20:57;113.0;105.4;
65783;PMS5003;52532;53.358;-1.488;2022-08-01T01:24:11;105.2;93.5;
65783;PMS5003;52532;53.358;-1.488;2022-08-01T01:27:25;108.1;98.0;
65783;PMS5003;52532;53.358;-1.488;2022-08-01T01:30:40;113.5;106.1;
65783;PMS5003;52532;53.358;-1.488;2022-08-01T01:33:48;112.0;100.3;
65783;PMS5003;52532;53.358;-1.488;2022-08-01T01:36:53;107.2;95.0;
65783;PMS5003;52532;53.358;-1.488;2022-08-01T01:39:58;93.5;86.9;
65783;PMS5003;52532;53.358;-1.488;2022-08-01T01:43:04;103.6;93.7;
65783;PMS5003;52532;53.358;-1.488;2022-08-01T01:46:12;101.2;89.7;
65783;PMS5003;52532;53.358;-1.488;2022-08-01T01:49:19;94.3;86.6;
65783;PMS5003;52532;53.358;-1.488;2022-08-01T01:52:25;104.9;95.3;
65783;PMS5003;52532;53.358;-1.488;2022-08-01T01:55:29;106.5;94.5;
65783;PMS5003;52532;53.358;-1.488;2022-08-01T01:58:33;105.2;95.2;
65783;PMS5003;52532;53.358;-1.488;2022-08-01T02:01:39;117.9;109.9;
65783;PMS5003;52532;53.358;-1.488;2022-08-01T02:04:43;112.5;100.9;
65783;PMS5003;52532;53.358;-1.488;2022-08-01T02:07:48;112.1;102.0;
65783;PMS5003;52532;53.358;-1.488;2022-08-01T02:10:53;98.9;90.9;
65783;PMS5003;52532;53.358;-1.488;2022-08-01T02:14:30;105.8;94.4;
65783;PMS5003;52532;53.358;-1.488;2022-08-01T02:17:37;99.6;88.7;
65783;PMS5003;52532;53.358;-1.488;2022-08-01T02:20:44;100.8;91.7;
65783;PMS5003;52532;53.358;-1.488;2022-08-01T02:23:50;107.2;95.5;
65783;PMS5003;52532;53.358;-1.488;2022-08-01T02:26:55;107.3;95.9;
65783;PMS5003;52532;53.358;-1.488;2022-08-01T02:30:03;96.2;89.7;
65783;PMS5003;52532;53.358;-1.488;2022-08-01T02:33:08;109.8;99.0;
65783;PMS5003;52532;53.358;-1.488;2022-08-01T02:36:16;101.3;88.5;
65783;PMS5003;52532;53.358;-1.488;2022-08-01T02:39:22;92.6;83.5;
65783;PMS5003;52532;53.358;-1.488;2022-08-01T02:42:27;96.6;86.4;
65783;PMS5003;52532;53.358;-1.488;2022-08-01T02:45:31;75.4;63.6;
65783;PMS5003;52532;53.358;-1.488;2022-08-01T02:48:37;75.0;64.8;
65783;PMS5003;52532;53.358;-1.488;2022-08-01T02:51:43;95.7;87.5;
65783;PMS5003;52532;53.358;-1.488;2022-08-01T02:54:50;107.9;96.6;
65783;PMS5003;52532;53.358;-1.488;2022-08-01T02:57:56;101.2;90.8;
65783;PMS5003;52532;53.358;-1.488;2022-08-01T03:01:00;104.5;96.4;
65783;PMS5003;52532;53.358;-1.488;2022-08-01T03:04:04;94.4;82.5;
65783;PMS5003;52532;53.358;-1.488;2022-08-01T03:07:09;109.7;98.6;
65783;PMS5003;52532;53.358;-1.488;2022-08-01T03:10:15;108.8;100.8;
65783;PMS5003;52532;53.358;-1.488;2022-08-01T03:13:19;109.7;98.0;
65783;PMS5003;52532;53.358;-1.488;2022-08-01T03:16:23;105.5;94.2;
65783;PMS5003;52532;53.358;-1.488;2022-08-01T03:19:29;114.8;106.5;
65783;PMS5003;52532;53.358;-1.488;2022-08-01T03:22:33;130.9;121.8;
65783;PMS5003;52532;53.358;-1.488;2022-08-01T03:25:39;132.2;117.7;
65783;PMS5003;52532;53.358;-1.488;2022-08-01T03:28:43;130.0;120.3;
65783;PMS5003;52532;53.358;-1.488;2022-08-01T03:31:48;132.1;123.6;
65783;PMS5003;52532;53.358;-1.488;2022-08-01T03:34:51;132.4;119.9;
65783;PMS5003;52532;53.358;-1.488;2022-08-01T03:37:55;136.5;124.8;
65783;PMS5003;52532;53.358;-1.488;2022-08-01T03:41:02;141.6;131.2;
65783;PMS5003;52532;53.358;-1.488;2022-08-01T03:44:10;138.4;121.1;
65783;PMS5003;52532;53.358;-1.488;2022-08-01T03:47:17;136.5;122.7;
65783;PMS5003;52532;53.358;-1.488;2022-08-01T03:50:24;131.4;121.3;
65783;PMS5003;52532;53.358;-1.488;2022-08-01T03:53:28;130.5;114.0;
65783;PMS5003;52532;53.358;-1.488;2022-08-01T03:56:39;133.3;118.2;
65783;PMS5003;52532;53.358;-1.488;2022-08-01T03:59:43;133.8;123.2;
65783;PMS5003;52532;53.358;-1.488;2022-08-01T04:02:47;140.2;124.1;
65783;PMS5003;52532;53.358;-1.488;2022-08-01T04:05:51;142.7;126.9;
65783;PMS5003;52532;53.358;-1.488;2022-08-01T04:08:54;136.7;126.5;
65783;PMS5003;52532;53.358;-1.488;2022-08-01T04:11:58;140.8;128.1;
65783;PMS5003;52532;53.358;-1.488;2022-08-01T04:15:01;143.0;127.5;
65783;PMS5003;52532;53.358;-1.488;2022-08-01T04:18:05;139.2;129.3;
65783;PMS5003;52532;53.358;-1.488;2022-08-01T04:21:08;135.3;122.4;
65783;PMS5003;52532;53.358;-1.488;2022-08-01T04:24:12;131.5;116.1;
65783;PMS5003;52532;53.358;-1.488;2022-08-01T04:27:17;133.3;121.2;
65783;PMS5003;52532;53.358;-1.488;2022-08-01T04:30:26;134.7;124.3;
65783;PMS5003;52532;53.358;-1.488;2022-08-01T04:33:31;140.2;124.6;
65783;PMS5003;52532;53.358;-1.488;2022-08-01T04:36:38;141.1;126.8;
65783;PMS5003;52532;53.358;-1.488;2022-08-01T04:39:43;135.9;125.9;
65783;PMS5003;52532;53.358;-1.488;2022-08-01T04:42:50;139.3;123.8;
65783;PMS5003;52532;53.358;-1.488;2022-08-01T04:45:53;140.8;126.6;
65783;PMS5003;52532;53.358;-1.488;2022-08-01T04:48:57;132.9;123.2;
65783;PMS5003;52532;53.358;-1.488;2022-08-01T04:52:02;134.8;119.3;
65783;PMS5003;52532;53.358;-1.488;2022-08-01T04:55:08;137.7;122.7;
65783;PMS5003;52532;53.358;-1.488;2022-08-01T04:58:11;138.2;128.4;
65783;PMS5003;52532;53.358;-1.488;2022-08-01T05:01:15;136.4;123.1;
65783;PMS5003;52532;53.358;-1.488;2022-08-01T05:04:18;140.6;125.3;
65783;PMS5003;52532;53.358;-1.488;2022-08-01T05:07:25;136.0;124.6;
65783;PMS5003;52532;53.358;-1.488;2022-08-01T05:10:33;135.4;122.7;
65783;PMS5003;52532;53.358;-1.488;2022-08-01T05:16:57;135.4;122.5;
65783;PMS5003;52532;53.358;-1.488;2022-08-01T05:20:00;134.6;124.7;
65783;PMS5003;52532;53.358;-1.488;2022-08-01T05:25:45;143.5;127.8;
65783;PMS5003;52532;53.358;-1.488;2022-08-01T05:28:50;132.8;120.3;
65783;PMS5003;52532;53.358;-1.488;2022-08-01T05:31:53;139.5;127.0;
65783;PMS5003;52532;53.358;-1.488;2022-08-01T05:34:56;141.7;126.3;
65783;PMS5003;52532;53.358;-1.488;2022-08-01T05:37:59;132.9;119.8;
65783;PMS5003;52532;53.358;-1.488;2022-08-01T05:41:02;139.5;128.4;
65783;PMS5003;52532;53.358;-1.488;2022-08-01T05:44:05;129.8;113.9;
65783;PMS5003;52532;53.358;-1.488;2022-08-01T05:47:08;134.1;119.0;
65783;PMS5003;52532;53.358;-1.488;2022-08-01T05:53:03;138.2;125.6;
65783;PMS5003;52532;53.358;-1.488;2022-08-01T05:56:05;138.9;123.2;
65783;PMS5003;52532;53.358;-1.488;2022-08-01T05:59:08;136.4;124.9;
65783;PMS5003;52532;53.358;-1.488;2022-08-01T06:02:12;132.3;124.3;
65783;PMS5003;52532;53.358;-1.488;2022-08-01T06:07:58;130.7;116.9;
65783;PMS5003;52532;53.358;-1.488;2022-08-01T06:11:01;136.0;125.3;
65783;PMS5003;52532;53.358;-1.488;2022-08-01T06:14:04;137.0;124.6;
65783;PMS5003;52532;53.358;-1.488;2022-08-01T06:17:07;135.4;120.2;
65783;PMS5003;52532;53.358;-1.488;2022-08-01T06:20:10;132.5;121.9;
65783;PMS5003;52532;53.358;-1.488;2022-08-01T06:23:13;132.4;119.5;
65783;PMS5003;52532;53.358;-1.488;2022-08-01T06:26:17;132.0;117.6;
65783;PMS5003;52532;53.358;-1.488;2022-08-01T06:29:21;128.2;115.7;
65783;PMS5003;52532;53.358;-1.488;2022-08-01T06:32:23;135.0;122.6;
65783;PMS5003;52532;53.358;-1.488;2022-08-01T06:35:27;131.8;116.8;
65783;PMS5003;52532;53.358;-1.488;2022-08-01T06:38:31;134.6;120.5;
65783;PMS5003;52532;53.358;-1.488;2022-08-01T06:41:34;138.6;127.2;
65783;PMS5003;52532;53.358;-1.488;2022-08-01T06:44:37;134.9;119.4;
65783;PMS5003;52532;53.358;-1.488;2022-08-01T06:47:43;133.7;117.9;
65783;PMS5003;52532;53.358;-1.488;2022-08-01T06:50:46;129.1;119.5;
65783;PMS5003;52532;53.358;-1.488;2022-08-01T06:53:49;124.4;116.7;
65783;PMS5003;52532;53.358;-1.488;2022-08-01T06:56:52;133.3;118.8;
65783;PMS5003;52532;53.358;-1.488;2022-08-01T06:59:55;131.1;120.9;
65783;PMS5003;52532;53.358;-1.488;2022-08-01T07:02:58;130.5;117.7;
65783;PMS5003;52532;53.358;-1.488;2022-08-01T07:06:01;129.3;116.3;
65783;PMS5003;52532;53.358;-1.488;2022-08-01T07:09:05;128.1;118.4;
65783;PMS5003;52532;53.358;-1.488;2022-08-01T07:12:17;131.9;120.7;
65783;PMS5003;52532;53.358;-1.488;2022-08-01T07:15:20;132.3;118.0;
65783;PMS5003;52532;53.358;-1.488;2022-08-01T07:18:27;127.8;117.0;
65783;PMS5003;52532;53.358;-1.488;2022-08-01T07:21:30;134.4;121.4;
65783;PMS5003;52532;53.358;-1.488;2022-08-01T07:24:33;130.0;114.2;
65783;PMS5003;52532;53.358;-1.488;2022-08-01T07:27:36;133.6;120.0;
65783;PMS5003;52532;53.358;-1.488;2022-08-01T07:33:29;136.5;124.0;
65783;PMS5003;52532;53.358;-1.488;2022-08-01T07:36:32;134.1;118.8;
65783;PMS5003;52532;53.358;-1.488;2022-08-01T07:39:35;131.5;120.2;
65783;PMS5003;52532;53.358;-1.488;2022-08-01T07:42:38;130.8;121.5;
65783;PMS5003;52532;53.358;-1.488;2022-08-01T07:45:44;124.7;113.2;
65783;PMS5003;52532;53.358;-1.488;2022-08-01T07:48:47;125.5;115.4;
65783;PMS5003;52532;53.358;-1.488;2022-08-01T07:51:50;120.2;111.9;
65783;PMS5003;52532;53.358;-1.488;2022-08-01T07:54:53;125.2;113.8;
65783;PMS5003;52532;53.358;-1.488;2022-08-01T07:57:57;119.8;109.7;
65783;PMS5003;52532;53.358;-1.488;2022-08-01T08:01:00;123.9;115.5;
65783;PMS5003;52532;53.358;-1.488;2022-08-01T08:04:04;123.7;111.1;
65783;PMS5003;52532;53.358;-1.488;2022-08-01T08:07:07;119.8;109.7;
65783;PMS5003;52532;53.358;-1.488;2022-08-01T08:10:12;123.8;115.8;
65783;PMS5003;52532;53.358;-1.488;2022-08-01T08:13:24;119.0;107.3;
65783;PMS5003;52532;53.358;-1.488;2022-08-01T08:16:34;120.0;109.9;
65783;PMS5003;52532;53.358;-1.488;2022-08-01T08:22:52;124.2;116.2;
65783;PMS5003;52532;53.358;-1.488;2022-08-01T08:27:24;119.1;107.6;
65783;PMS5003;52532;53.358;-1.488;2022-08-01T08:30:37;118.3;110.1;
65783;PMS5003;52532;53.358;-1.488;2022-08-01T08:33:47;125.4;115.3;
65783;PMS5003;52532;53.358;-1.488;2022-08-01T08:36:56;119.1;107.2;
65783;PMS5003;52532;53.358;-1.488;2022-08-01T08:40:00;114.7;105.5;
65783;PMS5003;52532;53.358;-1.488;2022-08-01T08:43:04;125.7;119.5;
65783;PMS5003;52532;53.358;-1.488;2022-08-01T08:46:08;122.4;110.6;
65783;PMS5003;52532;53.358;-1.488;2022-08-01T08:49:18;115.9;106.4;
65783;PMS5003;52532;53.358;-1.488;2022-08-01T08:52:26;120.3;114.6;
65783;PMS5003;52532;53.358;-1.488;2022-08-01T08:55:43;117.1;105.1;
65783;PMS5003;52532;53.358;-1.488;2022-08-01T08:58:59;114.0;103.1;
65783;PMS5003;52532;53.358;-1.488;2022-08-01T09:02:15;117.0;109.5;
65783;PMS5003;52532;53.358;-1.488;2022-08-01T09:05:23;106.9;94.0;
65783;PMS5003;52532;53.358;-1.488;2022-08-01T09:08:27;108.0;96.8;
65783;PMS5003;52532;53.358;-1.488;2022-08-01T09:11:30;101.5;94.1;
65783;PMS5003;52532;53.358;-1.488;2022-08-01T09:14:33;112.9;103.3;
65783;PMS5003;52532;53.358;-1.488;2022-08-01T09:17:51;102.0;90.5;
65783;PMS5003;52532;53.358;-1.488;2022-08-01T09:21:15;92.8;85.6;
65783;PMS5003;52532;53.358;-1.488;2022-08-01T09:24:30;105.7;96.3;
65783;PMS5003;52532;53.358;-1.488;2022-08-01T09:27:46;99.0;87.6;
65783;PMS5003;52532;53.358;-1.488;2022-08-01T09:31:13;94.1;85.4;
65783;PMS5003;52532;53.358;-1.488;2022-08-01T09:34:27;99.9;91.7;
65783;PMS5003;52532;53.358;-1.488;2022-08-01T09:40:18;98.9;87.2;
65783;PMS5003;52532;53.358;-1.488;2022-08-01T09:43:22;93.8;84.6;
65783;PMS5003;52532;53.358;-1.488;2022-08-01T09:46:26;109.5;102.2;
65783;PMS5003;52532;53.358;-1.488;2022-08-01T09:49:30;95.5;84.3;
65783;PMS5003;52532;53.358;-1.488;2022-08-01T09:52:34;91.7;82.4;
65783;PMS5003;52532;53.358;-1.488;2022-08-01T09:55:42;113.6;105.1;
65783;PMS5003;52532;53.358;-1.488;2022-08-01T09:58:50;109.2;96.9;
65783;PMS5003;52532;53.358;-1.488;2022-08-01T10:01:55;105.8;94.7;
65783;PMS5003;52532;53.358;-1.488;2022-08-01T10:04:59;112.2;107.1;
65783;PMS5003;52532;53.358;-1.488;2022-08-01T10:08:04;99.1;87.7;
65783;PMS5003;52532;53.358;-1.488;2022-08-01T10:11:13;89.0;78.0;
65783;PMS5003;52532;53.358;-1.488;2022-08-01T10:14:31;96.8;90.9;
65783;PMS5003;52532;53.358;-1.488;2022-08-01T10:17:47;106.6;95.9;
65783;PMS5003;52532;53.358;-1.488;2022-08-01T10:21:18;88.2;78.5;
65783;PMS5003;52532;53.358;-1.488;2022-08-01T10:24:37;88.0;81.7;
65783;PMS5003;52532;53.358;-1.488;2022-08-01T10:27:53;102.5;92.7;
65783;PMS5003;52532;53.358;-1.488;2022-08-01T10:31:11;82.8;71.8;
65783;PMS5003;52532;53.358;-1.488;2022-08-01T10:34:23;85.9;76.0;
65783;PMS5003;52532;53.358;-1.488;2022-08-01T10:37:27;94.8;85.4;
65783;PMS5003;52532;53.358;-1.488;2022-08-01T10:40:31;67.9;56.2;
65783;PMS5003;52532;53.358;-1.488;2022-08-01T10:43:36;92.9;82.5;
65783;PMS5003;52532;53.358;-1.488;2022-08-01T10:46:44;103.4;94.9;
65783;PMS5003;52532;53.358;-1.488;2022-08-01T10:49:58;83.4;72.0;
65783;PMS5003;52532;53.358;-1.488;2022-08-01T10:53:15;80.1;69.5;
65783;PMS5003;52532;53.358;-1.488;2022-08-01T10:56:20;95.8;89.3;
65783;PMS5003;52532;53.358;-1.488;2022-08-01T10:59:27;78.8;68.0;
65783;PMS5003;52532;53.358;-1.488;2022-08-01T11:02:39;63.9;52.9;
65783;PMS5003;52532;53.358;-1.488;2022-08-01T11:06:07;62.3;54.7;
65783;PMS5003;52532;53.358;-1.488;2022-08-01T11:09:23;61.3;50.2;
65783;PMS5003;52532;53.358;-1.488;2022-08-01T11:12:38;51.4;40.6;
65783;PMS5003;52532;53.358;-1.488;2022-08-01T11:15:44;58.0;50.1;
65783;PMS5003;52532;53.358;-1.488;2022-08-01T11:18:49;89.2;79.1;
65783;PMS5003;52532;53.358;-1.488;2022-08-01T11:22:01;51.5;40.2;
65783;PMS5003;52532;53.358;-1.488;2022-08-01T11:25:11;49.0;39.4;
65783;PMS5003;52532;53.358;-1.488;2022-08-01T11:28:17;74.6;65.1;
65783;PMS5003;52532;53.358;-1.488;2022-08-01T11:31:26;48.4;36.9;
65783;PMS5003;52532;53.358;-1.488;2022-08-01T11:34:57;42.2;37.9;
65783;PMS5003;52532;53.358;-1.488;2022-08-01T11:38:23;60.7;55.1;
65783;PMS5003;52532;53.358;-1.488;2022-08-01T11:41:33;42.7;33.9;
65783;PMS5003;52532;53.358;-1.488;2022-08-01T11:44:48;36.3;34.4;
65783;PMS5003;52532;53.358;-1.488;2022-08-01T11:48:00;46.8;44.4;
65783;PMS5003;52532;53.358;-1.488;2022-08-01T11:51:03;74.9;66.5;
65783;PMS5003;52532;53.358;-1.488;2022-08-01T11:54:18;56.0;50.1;
65783;PMS5003;52532;53.358;-1.488;2022-08-01T11:57:27;52.3;49.4;
65783;PMS5003;52532;53.358;-1.488;2022-08-01T12:00:32;46.6;38.2;
65783;PMS5003;52532;53.358;-1.488;2022-08-01T12:03:36;49.1;47.2;
65783;PMS5003;52532;53.358;-1.488;2022-08-01T12:06:39;43.3;40.4;
65783;PMS5003;52532;53.358;-1.488;2022-08-01T12:09:42;57.4;56.8;
65783;PMS5003;52532;53.358;-1.488;2022-08-01T12:12:47;51.9;51.9;
65783;PMS5003;52532;53.358;-1.488;2022-08-01T12:15:51;47.7;47.7;
65783;PMS5003;52532;53.358;-1.488;2022-08-01T12:18:55;68.5;61.4;
65783;PMS5003;52532;53.358;-1.488;2022-08-01T12:22:14;66.0;54.3;
65783;PMS5003;52532;53.358;-1.488;2022-08-01T12:25:17;63.7;54.6;
65783;PMS5003;52532;53.358;-1.488;2022-08-01T12:28:20;106.9;98.3;
65783;PMS5003;52532;53.358;-1.488;2022-08-01T12:31:30;72.0;60.8;
65783;PMS5003;52532;53.358;-1.488;2022-08-01T12:34:34;90.2;79.9;
65783;PMS5003;52532;53.358;-1.488;2022-08-01T12:37:42;101.3;95.4;
65783;PMS5003;52532;53.358;-1.488;2022-08-01T12:41:02;95.0;82.9;
65783;PMS5003;52532;53.358;-1.488;2022-08-01T12:44:32;72.4;61.0;
65783;PMS5003;52532;53.358;-1.488;2022-08-01T12:47:55;89.8;83.8;
65783;PMS5003;52532;53.358;-1.488;2022-08-01T12:51:09;110.2;99.9;
65783;PMS5003;52532;53.358;-1.488;2022-08-01T12:54:13;74.0;63.1;
65783;PMS5003;52532;53.358;-1.488;2022-08-01T12:57:21;78.4;71.2;
65783;PMS5003;52532;53.358;-1.488;2022-08-01T13:00:26;92.0;81.4;
65783;PMS5003;52532;53.358;-1.488;2022-08-01T13:03:29;65.5;54.3;
65783;PMS5003;52532;53.358;-1.488;2022-08-01T13:06:31;70.7;61.2;
65783;PMS5003;52532;53.358;-1.488;2022-08-01T13:09:37;100.7;89.8;
65783;PMS5003;52532;53.358;-1.488;2022-08-01T13:12:53;68.9;57.6;
65783;PMS5003;52532;53.358;-1.488;2022-08-01T13:16:02;73.4;62.8;
65783;PMS5003;52532;53.358;-1.488;2022-08-01T13:19:06;101.1;92.9;
65783;PMS5003;52532;53.358;-1.488;2022-08-01T13:22:10;65.6;53.9;
65783;PMS5003;52532;53.358;-1.488;2022-08-01T13:25:13;63.8;54.2;
65783;PMS5003;52532;53.358;-1.488;2022-08-01T13:28:19;87.9;81.7;
65783;PMS5003;52532;53.358;-1.488;2022-08-01T13:31:23;78.4;67.3;
65783;PMS5003;52532;53.358;-1.488;2022-08-01T13:34:34;48.7;37.9;
65783;PMS5003;52532;53.358;-1.488;2022-08-01T13:37:40;61.5;54.8;
65783;PMS5003;52532;53.358;-1.488;2022-08-01T13:40:44;76.0;64.5;
65783;PMS5003;52532;53.358;-1.488;2022-08-01T13:43:47;57.2;46.4;
65783;PMS5003;52532;53.358;-1.488;2022-08-01T13:46:50;66.2;57.2;
65783;PMS5003;52532;53.358;-1.488;2022-08-01T13:49:52;86.5;76.9;
65783;PMS5003;52532;53.358;-1.488;2022-08-01T13:52:55;72.1;60.7;
65783;PMS5003;52532;53.358;-1.488;2022-08-01T13:55:58;68.2;59.2;
65783;PMS5003;52532;53.358;-1.488;2022-08-01T13:59:01;94.4;84.9;
65783;PMS5003;52532;53.358;-1.488;2022-08-01T14:02:05;67.2;55.6;
65783;PMS5003;52532;53.358;-1.488;2022-08-01T14:05:08;54.7;44.2;
65783;PMS5003;52532;53.358;-1.488;2022-08-01T14:08:11;79.6;71.1;
65783;PMS5003;52532;53.358;-1.488;2022-08-01T14:11:14;58.6;47.4;
65783;PMS5003;52532;53.358;-1.488;2022-08-01T14:14:17;60.6;51.5;
65783;PMS5003;52532;53.358;-1.488;2022-08-01T14:20:11;81.0;71.1;
65783;PMS5003;52532;53.358;-1.488;2022-08-01T14:23:14;75.4;64.2;
65783;PMS5003;52532;53.358;-1.488;2022-08-01T14:26:17;75.8;70.7;
65783;PMS5003;52532;53.358;-1.488;2022-08-01T14:29:20;105.7;96.1;
65783;PMS5003;52532;53.358;-1.488;2022-08-01T14:35:07;71.2;59.2;
65783;PMS5003;52532;53.358;-1.488;2022-08-01T14:38:10;84.6;76.7;
65783;PMS5003;52532;53.358;-1.488;2022-08-01T14:41:13;107.8;97.6;
65783;PMS5003;52532;53.358;-1.488;2022-08-01T14:44:16;101.2;88.9;
65783;PMS5003;52532;53.358;-1.488;2022-08-01T14:47:19;97.2;89.2;
65783;PMS5003;52532;53.358;-1.488;2022-08-01T14:50:22;109.9;99.4;
65783;PMS5003;52532;53.358;-1.488;2022-08-01T14:53:28;109.7;98.4;
65783;PMS5003;52532;53.358;-1.488;2022-08-01T14:56:31;99.8;90.8;
65783;PMS5003;52532;53.358;-1.488;2022-08-01T14:59:34;115.6;106.3;
65783;PMS5003;52532;53.358;-1.488;2022-08-01T15:02:37;101.2;89.6;
65783;PMS5003;52532;53.358;-1.488;2022-08-01T15:05:40;101.8;90.8;
65783;PMS5003;52532;53.358;-1.488;2022-08-01T15:08:44;107.6;101.3;
65783;PMS5003;52532;53.358;-1.488;2022-08-01T15:11:46;113.1;102.1;
65783;PMS5003;52532;53.358;-1.488;2022-08-01T15:14:49;98.3;87.1;
65783;PMS5003;52532;53.358;-1.488;2022-08-01T15:17:52;109.3;102.8;
65783;PMS5003;52532;53.358;-1.488;2022-08-01T15:20:55;117.9;107.6;
65783;PMS5003;52532;53.358;-1.488;2022-08-01T15:24:00;109.5;98.2;
65783;PMS5003;52532;53.358;-1.488;2022-08-01T15:27:03;101.2;93.3;
65783;PMS5003;52532;53.358;-1.488;2022-08-01T15:30:07;115.1;104.7;
65783;PMS5003;52532;53.358;-1.488;2022-08-01T15:33:10;109.0;98.1;
65783;PMS5003;52532;53.358;-1.488;2022-08-01T15:36:14;105.8;98.0;
65783;PMS5003;52532;53.358;-1.488;2022-08-01T15:39:17;112.8;102.7;
65783;PMS5003;52532;53.358;-1.488;2022-08-01T15:42:20;108.6;95.3;
65783;PMS5003;52532;53.358;-1.488;2022-08-01T15:45:22;110.7;101.7;
65783;PMS5003;52532;53.358;-1.488;2022-08-01T15:48:26;111.9;100.6;
65783;PMS5003;52532;53.358;-1.488;2022-08-01T15:51:29;107.5;95.7;
65783;PMS5003;52532;53.358;-1.488;2022-08-01T15:54:32;105.1;94.7;
65783;PMS5003;52532;53.358;-1.488;2022-08-01T15:57:36;112.7;107.9;
65783;PMS5003;52532;53.358;-1.488;2022-08-01T16:00:40;105.1;94.5;
65783;PMS5003;52532;53.358;-1.488;2022-08-01T16:03:46;99.2;89.0;
65783;PMS5003;52532;53.358;-1.488;2022-08-01T16:06:49;112.9;108.7;
65783;PMS5003;52532;53.358;-1.488;2022-08-01T16:09:52;110.4;100.0;
65783;PMS5003;52532;53.358;-1.488;2022-08-01T16:12:58;98.5;87.7;
65783;PMS5003;52532;53.358;-1.488;2022-08-01T16:16:10;109.0;101.2;
65783;PMS5003;52532;53.358;-1.488;2022-08-01T16:19:24;125.7;113.8;
65783;PMS5003;52532;53.358;-1.488;2022-08-01T16:22:33;110.3;97.3;
65783;PMS5003;52532;53.358;-1.488;2022-08-01T16:25:41;107.8;98.6;
65783;PMS5003;52532;53.358;-1.488;2022-08-01T16:28:51;119.0;110.0;
65783;PMS5003;52532;53.358;-1.488;2022-08-01T16:32:05;99.7;88.3;
65783;PMS5003;52532;53.358;-1.488;2022-08-01T16:35:19;109.3;99.7;
65783;PMS5003;52532;53.358;-1.488;2022-08-01T16:38:34;116.0;106.4;
65783;PMS5003;52532;53.358;-1.488;2022-08-01T16:41:42;102.8;91.4;
65783;PMS5003;52532;53.358;-1.488;2022-08-01T16:44:46;117.8;106.0;
65783;PMS5003;52532;53.358;-1.488;2022-08-01T16:47:53;127.2;120.5;
65783;PMS5003;52532;53.358;-1.488;2022-08-01T16:51:02;120.9;108.5;
65783;PMS5003;52532;53.358;-1.488;2022-08-01T16:54:05;122.0;110.6;
65783;PMS5003;52532;53.358;-1.488;2022-08-01T16:57:08;117.2;110.6;
65783;PMS5003;52532;53.358;-1.488;2022-08-01T17:00:12;122.3;109.6;
65783;PMS5003;52532;53.358;-1.488;2022-08-01T17:03:19;102.2;91.6;
65783;PMS5003;52532;53.358;-1.488;2022-08-01T17:06:30;112.1;106.1;
65783;PMS5003;52532;53.358;-1.488;2022-08-01T17:09:34;123.6;112.3;
65783;PMS5003;52532;53.358;-1.488;2022-08-01T17:12:36;94.7;83.1;
65783;PMS5003;52532;53.358;-1.488;2022-08-01T17:15:40;95.6;90.5;
65783;PMS5003;52532;53.358;-1.488;2022-08-01T17:18:43;120.2;110.6;
65783;PMS5003;52532;53.358;-1.488;2022-08-01T17:21:46;107.8;96.3;
65783;PMS5003;52532;53.358;-1.488;2022-08-01T17:24:49;112.5;103.2;
65783;PMS5003;52532;53.358;-1.488;2022-08-01T17:27:52;119.8;109.1;
65783;PMS5003;52532;53.358;-1.488;2022-08-01T17:30:57;118.2;104.7;
65783;PMS5003;52532;53.358;-1.488;2022-08-01T17:34:01;112.3;99.6;
65783;PMS5003;52532;53.358;-1.488;2022-08-01T17:37:04;114.5;107.5;
65783;PMS5003;52532;53.358;-1.488;2022-08-01T17:40:07;119.7;107.7;
65783;PMS5003;52532;53.358;-1.488;2022-08-01T17:43:11;107.0;96.6;
65783;PMS5003;52532;53.358;-1.488;2022-08-01T17:46:14;103.7;96.6;
65783;PMS5003;52532;53.358;-1.488;2022-08-01T17:49:17;117.7;103.0;
65783;PMS5003;52532;53.358;-1.488;2022-08-01T17:52:22;106.6;95.6;
65783;PMS5003;52532;53.358;-1.488;2022-08-01T17:55:25;105.8;97.3;
65783;PMS5003;52532;53.358;-1.488;2022-08-01T17:58:28;111.1;100.7;
65783;PMS5003;52532;53.358;-1.488;2022-08-01T18:01:36;109.1;97.6;
65783;PMS5003;52532;53.358;-1.488;2022-08-01T18:04:48;104.4;94.4;
65783;PMS5003;52532;53.358;-1.488;2022-08-01T18:07:57;121.0;107.9;
65783;PMS5003;52532;53.358;-1.488;2022-08-01T18:11:06;107.2;94.4;
65783;PMS5003;52532;53.358;-1.488;2022-08-01T18:14:30;102.4;89.7;
65783;PMS5003;52532;53.358;-1.488;2022-08-01T18:17:53;106.7;98.2;
65783;PMS5003;52532;53.358;-1.488;2022-08-01T18:21:09;106.7;97.9;
65783;PMS5003;52532;53.358;-1.488;2022-08-01T18:24:30;115.8;103.3;
65783;PMS5003;52532;53.358;-1.488;2022-08-01T18:27:51;105.1;94.6;
65783;PMS5003;52532;53.358;-1.488;2022-08-01T18:31:00;109.6;97.7;
65783;PMS5003;52532;53.358;-1.488;2022-08-01T18:34:16;107.7;95.8;
65783;PMS5003;52532;53.358;-1.488;2022-08-01T18:37:34;91.2;80.9;
65783;PMS5003;52532;53.358;-1.488;2022-08-01T18:40:52;110.0;101.8;
65783;PMS5003;52532;53.358;-1.488;2022-08-01T18:44:08;103.1;91.3;
65783;PMS5003;52532;53.358;-1.488;2022-08-01T18:47:18;100.4;90.5;
65783;PMS5003;52532;53.358;-1.488;2022-08-01T18:50:33;104.7;95.7;
65783;PMS5003;52532;53.358;-1.488;2022-08-01T18:53:44;116.8;104.4;
65783;PMS5003;52532;53.358;-1.488;2022-08-01T18:56:56;75.9;63.1;
65783;PMS5003;52532;53.358;-1.488;2022-08-01T18:59:59;81.2;71.1;
65783;PMS5003;52532;53.358;-1.488;2022-08-01T19:03:02;106.0;90.7;
65783;PMS5003;52532;53.358;-1.488;2022-08-01T19:08:46;74.3;62.5;
65783;PMS5003;52532;53.358;-1.488;2022-08-01T19:11:50;78.1;69.2;
65783;PMS5003;52532;53.358;-1.488;2022-08-01T19:14:52;103.1;92.0;